Time;durP1;ratioP1;P1;durP2;ratioP2;P2;SDS_P1;SDS_P2;PMS_P1;PMS_P2;Temp;Humidity;BMP_temperature;BMP_pressure;BME280_temperature;BME280_humidity;BME280_pressure;Samples;Min_cycle;Max_cycle;Signal;HPM_P1;HPM_P2
2023/08/23 00:02:22;;;;;;;8.63;6.82;;;21.40;99.90;;;;;;5117074;28;20028;-71
2023/08/23 00:04:50;;;;;;;10.57;7.50;;;21.40;99.90;;;;;;5117205;28;20020;-71
2023/08/23 00:07:15;;;;;;;10.40;7.05;;;21.40;99.90;;;;;;5116934;28;20062;-71
2023/08/23 00:09:41;;;;;;;7.88;6.72;;;21.30;99.90;;;;;;5117042;28;20074;-71
2023/08/23 00:12:07;;;;;;;7.95;6.85;;;21.30;99.90;;;;;;5117081;28;20027;-71
2023/08/23 00:14:33;;;;;;;7.65;6.10;;;21.30;99.90;;;;;;5116776;28;20059;-71
2023/08/23 00:16:58;;;;;;;7.60;6.75;;;21.30;99.90;;;;;;5117408;28;20036;-71
2023/08/23 00:19:24;;;;;;;7.68;6.85;;;21.30;99.90;;;;;;5117081;28;20405;-71
2023/08/23 00:21:50;;;;;;;8.52;7.13;;;21.30;99.90;;;;;;5115892;28;20527;-71
2023/08/23 00:24:15;;;;;;;7.45;6.63;;;21.30;99.90;;;;;;5117034;28;20038;-71
2023/08/23 00:26:41;;;;;;;6.90;6.20;;;21.30;99.90;;;;;;5116874;28;20058;-71
2023/08/23 00:29:07;;;;;;;10.38;7.05;;;21.30;99.90;;;;;;5081361;28;20123;-71
2023/08/23 00:31:33;;;;;;;8.35;7.20;;;21.30;99.90;;;;;;5116823;28;20040;-71
2023/08/23 00:33:58;;;;;;;8.02;7.05;;;21.20;99.90;;;;;;5116954;28;20119;-71
2023/08/23 00:36:24;;;;;;;9.25;7.25;;;21.10;99.90;;;;;;5098186;28;20028;-71
2023/08/23 00:38:50;;;;;;;8.70;7.32;;;21.00;99.90;;;;;;5098102;28;20024;-71
2023/08/23 00:41:15;;;;;;;8.80;7.15;;;20.90;99.90;;;;;;5116304;28;20024;-71
2023/08/23 00:43:41;;;;;;;8.35;7.32;;;20.70;99.90;;;;;;5116795;28;20540;-71
2023/08/23 00:46:07;;;;;;;7.70;6.35;;;20.70;99.90;;;;;;5117313;28;20067;-71
2023/08/23 00:48:33;;;;;;;7.40;6.63;;;20.70;99.90;;;;;;5116555;28;20157;-71
2023/08/23 00:50:59;;;;;;;9.13;6.63;;;20.60;99.90;;;;;;5116059;28;20051;-71
2023/08/23 00:53:25;;;;;;;9.40;7.82;;;20.70;99.90;;;;;;5097717;28;20544;-71
2023/08/23 00:55:51;;;;;;;9.20;7.35;;;20.70;99.90;;;;;;5115978;28;20042;-71
2023/08/23 00:58:18;;;;;;;9.90;7.95;;;20.60;99.90;;;;;;5116009;28;20020;-71
2023/08/23 01:00:45;;;;;;;9.25;7.40;;;20.60;99.90;;;;;;5098018;28;20028;-71
2023/08/23 01:03:10;;;;;;;10.38;7.65;;;20.50;99.90;;;;;;5115848;28;20430;-71
2023/08/23 01:06:12;;;;;;;9.45;7.25;;;20.50;99.90;;;;;;5115892;28;20031;-71
2023/08/23 01:08:56;;;;;;;;;;;20.50;99.90;;;;;;5013739;28;20137;-71
2023/08/23 01:11:31;;;;;;;9.48;7.65;;;20.50;99.90;;;;;;5107358;28;20010;-71
2023/08/23 01:14:07;;;;;;;7.78;6.97;;;20.60;99.90;;;;;;5115974;28;20111;-71
2023/08/23 01:16:34;;;;;;;8.07;7.28;;;20.60;99.90;;;;;;5115964;28;20030;-71
2023/08/23 01:19:16;;;;;;;8.73;7.25;;;20.60;99.90;;;;;;5115462;28;20100;-71
2023/08/23 01:21:46;;;;;;;8.30;7.20;;;20.60;99.90;;;;;;5097298;28;20027;-71
2023/08/23 01:24:12;;;;;;;8.60;7.50;;;20.60;99.90;;;;;;5115740;28;20031;-71
2023/08/23 01:26:41;;;;;;;8.73;7.30;;;20.60;99.90;;;;;;5115500;28;20028;-71
2023/08/23 01:29:07;;;;;;;7.65;6.85;;;20.60;99.90;;;;;;5115341;28;20114;-71
2023/08/23 01:31:38;;;;;;;9.10;6.97;;;20.60;99.90;;;;;;5115590;28;20020;-71
2023/08/23 01:34:12;;;;;;;7.88;7.05;;;20.50;99.90;;;;;;5114336;28;20019;-71
2023/08/23 01:36:41;;;;;;;8.45;7.00;;;20.50;99.90;;;;;;5115783;28;20047;-71
2023/08/23 01:39:10;;;;;;;8.27;6.82;;;20.40;99.90;;;;;;5115709;28;20020;-71
2023/08/23 01:41:37;;;;;;;8.25;6.78;;;20.30;99.90;;;;;;5115383;28;20023;-71
2023/08/23 01:44:04;;;;;;;8.55;7.32;;;20.20;99.90;;;;;;5115145;28;20024;-71
2023/08/23 01:46:30;;;;;;;9.70;6.93;;;20.20;99.90;;;;;;5115046;28;20051;-71
2023/08/23 01:48:55;;;;;;;9.23;7.53;;;20.20;99.90;;;;;;5114982;28;20023;-71
2023/08/23 01:51:21;;;;;;;7.75;6.95;;;20.20;99.90;;;;;;5115158;28;20027;-71
2023/08/23 01:53:47;;;;;;;8.95;6.90;;;20.20;99.90;;;;;;5096673;28;20077;-71
2023/08/23 01:56:12;;;;;;;8.90;7.60;;;20.20;99.90;;;;;;5096637;28;20059;-71
2023/08/23 01:58:38;;;;;;;9.70;7.40;;;20.10;99.90;;;;;;5115129;28;20028;-71
2023/08/23 02:01:04;;;;;;;12.18;8.38;;;20.00;99.90;;;;;;5114738;28;20039;-71
2023/08/23 02:03:29;;;;;;;10.32;8.13;;;19.80;99.90;;;;;;5114681;28;20019;-71
2023/08/23 02:05:55;;;;;;;10.18;8.50;;;19.70;99.90;;;;;;5114685;28;20038;-71
2023/08/23 02:08:21;;;;;;;10.15;8.10;;;19.50;99.90;;;;;;5114585;28;20027;-71
2023/08/23 02:10:47;;;;;;;10.93;8.75;;;19.40;99.90;;;;;;5096436;28;20043;-71
2023/08/23 02:13:12;;;;;;;12.50;8.10;;;19.40;99.90;;;;;;5114579;28;20032;-71
2023/08/23 02:15:38;;;;;;;10.95;7.85;;;19.40;99.90;;;;;;5114414;28;20050;-71
2023/08/23 02:18:04;;;;;;;8.60;7.38;;;19.40;99.90;;;;;;5114385;28;20023;-71
2023/08/23 02:20:30;;;;;;;9.00;7.40;;;19.40;99.90;;;;;;5114360;28;20391;-71
2023/08/23 02:22:55;;;;;;;9.07;7.13;;;19.50;99.90;;;;;;5114372;28;20479;-71
2023/08/23 02:25:21;;;;;;;8.30;6.75;;;19.50;99.90;;;;;;5114350;28;20605;-71
2023/08/23 02:27:47;;;;;;;10.57;8.27;;;19.50;99.90;;;;;;5114235;28;20092;-71
2023/08/23 02:30:13;;;;;;;11.10;8.02;;;19.50;99.90;;;;;;5079074;28;20024;-71
2023/08/23 02:32:38;;;;;;;10.43;7.72;;;19.40;99.90;;;;;;5114219;28;20058;-70
2023/08/23 02:35:04;;;;;;;11.27;8.38;;;19.40;99.90;;;;;;5114044;28;20123;-71
2023/08/23 02:37:30;;;;;;;9.73;8.48;;;19.40;99.90;;;;;;5114096;28;20082;-71
2023/08/23 02:39:55;;;;;;;9.55;7.65;;;19.40;99.90;;;;;;5114069;28;20024;-71
2023/08/23 02:42:21;;;;;;;10.55;7.55;;;19.40;99.90;;;;;;5095900;28;20118;-70
2023/08/23 02:44:47;;;;;;;12.65;8.98;;;19.40;99.90;;;;;;5113731;28;20110;-71
2023/08/23 02:47:12;;;;;;;10.93;7.85;;;19.50;99.90;;;;;;5114503;28;20036;-71
2023/08/23 02:49:38;;;;;;;13.50;8.38;;;19.40;99.90;;;;;;5095709;28;20144;-71
2023/08/23 02:52:04;;;;;;;9.15;7.70;;;19.40;99.90;;;;;;5113926;28;20032;-71
2023/08/23 02:54:30;;;;;;;11.02;8.27;;;19.40;99.90;;;;;;5078832;28;20399;-71
2023/08/23 02:56:56;;;;;;;8.75;7.13;;;19.40;99.90;;;;;;5096313;28;20050;-71
2023/08/23 02:59:23;;;;;;;9.27;8.13;;;19.50;99.90;;;;;;5114340;28;20027;-71
2023/08/23 03:01:49;;;;;;;9.95;8.10;;;19.50;99.90;;;;;;5113782;28;20023;-70
2023/08/23 03:04:14;;;;;;;10.40;8.52;;;19.50;99.90;;;;;;5095734;28;20035;-71
2023/08/23 03:06:40;;;;;;;10.25;8.02;;;19.40;99.90;;;;;;5113741;28;20027;-71
2023/08/23 03:09:05;;;;;;;11.82;9.07;;;19.40;99.90;;;;;;5113697;28;20031;-71
2023/08/23 03:11:31;;;;;;;10.57;8.70;;;19.20;99.90;;;;;;5113922;28;20514;-71
2023/08/23 03:13:57;;;;;;;11.73;8.30;;;19.10;99.90;;;;;;5113645;28;20126;-71
2023/08/23 03:16:23;;;;;;;10.02;8.60;;;19.10;99.90;;;;;;5114004;28;20032;-71
2023/08/23 03:18:48;;;;;;;8.70;7.80;;;19.10;99.90;;;;;;5113761;28;20054;-71
2023/08/23 03:21:14;;;;;;;9.60;7.95;;;19.10;99.90;;;;;;5095720;28;20137;-71
2023/08/23 03:23:40;;;;;;;9.13;7.90;;;19.00;99.90;;;;;;5113727;28;20111;-70
2023/08/23 03:26:05;;;;;;;9.95;7.45;;;19.10;99.90;;;;;;5113921;28;20019;-70
2023/08/23 03:28:31;;;;;;;10.32;8.25;;;19.00;99.90;;;;;;5095580;28;20032;-71
2023/08/23 03:31:03;;;;;;;9.90;8.52;;;19.00;99.90;;;;;;5113561;28;20028;-71
2023/08/23 03:33:29;;;;;;;11.70;8.75;;;19.00;99.90;;;;;;5113559;28;20027;-70
2023/08/23 03:35:55;;;;;;;10.10;7.88;;;18.90;99.90;;;;;;5095367;28;20108;-70
2023/08/23 03:38:21;;;;;;;10.68;7.85;;;18.80;99.90;;;;;;5113520;28;20425;-70
2023/08/23 03:40:48;;;;;;;9.23;8.20;;;18.80;99.90;;;;;;5113401;28;20098;-70
2023/08/23 03:43:14;;;;;;;11.10;7.90;;;18.70;99.90;;;;;;5113813;28;20472;-70
2023/08/23 03:45:50;;;;;;;9.70;7.90;;;18.70;99.90;;;;;;5095219;28;20035;-70
2023/08/23 03:48:16;;;;;;;10.50;8.50;;;18.70;99.90;;;;;;5113411;28;20402;-70
2023/08/23 03:50:42;;;;;;;10.27;7.63;;;18.70;99.90;;;;;;5113217;28;20027;-70
2023/08/23 03:53:08;;;;;;;9.45;7.70;;;18.80;99.90;;;;;;5113282;28;20484;-70
2023/08/23 03:55:36;;;;;;;12.43;9.30;;;18.80;99.90;;;;;;5113263;28;20026;-70
2023/08/23 03:58:03;;;;;;;12.75;9.27;;;18.80;99.90;;;;;;5116178;28;20023;-70
2023/08/23 04:00:29;;;;;;;12.43;9.70;;;18.90;99.90;;;;;;5117309;28;20476;-70
2023/08/23 04:02:54;;;;;;;10.85;9.60;;;18.90;99.90;;;;;;5117638;28;20062;-70
2023/08/23 04:05:20;;;;;;;11.32;9.43;;;19.00;99.90;;;;;;5098788;28;20035;-70
2023/08/23 04:07:46;;;;;;;14.55;10.48;;;18.90;99.90;;;;;;5098514;28;20032;-70
2023/08/23 04:10:11;;;;;;;12.07;9.43;;;18.80;99.90;;;;;;5116699;28;20120;-70
2023/08/23 04:12:37;;;;;;;11.98;9.55;;;18.80;99.90;;;;;;5116744;28;20365;-71
2023/08/23 04:15:03;;;;;;;10.13;8.95;;;18.80;99.90;;;;;;5116560;28;20075;-70
2023/08/23 04:17:29;;;;;;;10.73;8.77;;;18.80;99.90;;;;;;5116730;28;20484;-70
2023/08/23 04:19:55;;;;;;;11.57;8.85;;;18.70;99.90;;;;;;5116677;28;20028;-70
2023/08/23 04:22:20;;;;;;;10.90;8.85;;;18.70;99.90;;;;;;5116769;28;20023;-70
2023/08/23 04:24:49;;;;;;;9.63;8.48;;;18.70;99.90;;;;;;5088735;28;20071;-70
2023/08/23 04:27:14;;;;;;;9.27;8.30;;;18.70;99.90;;;;;;5096241;28;20024;-70
2023/08/23 04:29:40;;;;;;;10.85;8.75;;;18.70;99.90;;;;;;5096223;28;20028;-70
2023/08/23 04:32:09;;;;;;;11.68;8.98;;;18.60;99.90;;;;;;5096149;28;20035;-70
2023/08/23 04:34:35;;;;;;;12.73;8.82;;;18.70;99.90;;;;;;5096043;28;20541;-70
2023/08/23 04:37:01;;;;;;;10.95;9.05;;;18.70;99.90;;;;;;5095399;28;20024;-72
2023/08/23 04:39:27;;;;;;;12.57;9.00;;;18.70;99.90;;;;;;5094950;28;20069;-72
2023/08/23 04:41:52;;;;;;;10.27;8.68;;;18.60;99.90;;;;;;5095461;28;20099;-71
2023/08/23 04:44:18;;;;;;;10.52;8.40;;;18.70;99.90;;;;;;5095578;28;20364;-70
2023/08/23 04:46:44;;;;;;;9.52;8.43;;;18.70;99.90;;;;;;5095136;28;20110;-71
2023/08/23 04:49:10;;;;;;;11.10;8.55;;;18.70;99.90;;;;;;5095789;28;20074;-71
2023/08/23 04:51:35;;;;;;;9.40;8.20;;;18.60;99.90;;;;;;5096101;28;20032;-70
2023/08/23 04:54:01;;;;;;;12.85;9.13;;;18.70;99.90;;;;;;5095713;28;20404;-70
2023/08/23 04:56:27;;;;;;;15.18;9.40;;;18.60;99.90;;;;;;5095705;28;20465;-70
2023/08/23 04:58:53;;;;;;;13.10;9.68;;;18.60;99.90;;;;;;5095642;28;20056;-70
2023/08/23 05:01:18;;;;;;;16.30;11.80;;;18.60;99.90;;;;;;5095533;28;20032;-70
2023/08/23 05:03:44;;;;;;;15.23;10.82;;;18.50;99.90;;;;;;5095806;28;20024;-70
2023/08/23 05:06:10;;;;;;;12.18;10.88;;;18.50;99.90;;;;;;5095607;28;20032;-70
2023/08/23 05:08:36;;;;;;;12.10;10.45;;;18.60;99.90;;;;;;5095234;28;20366;-70
2023/08/23 05:11:02;;;;;;;11.57;10.02;;;18.60;99.90;;;;;;5095652;28;20032;-70
2023/08/23 05:13:27;;;;;;;10.65;9.27;;;18.60;99.90;;;;;;5060652;28;20473;-70
2023/08/23 05:15:54;;;;;;;12.57;9.35;;;18.60;99.90;;;;;;5095251;28;20504;-70
2023/08/23 05:18:21;;;;;;;10.82;8.73;;;18.50;99.90;;;;;;5077085;28;20082;-70
2023/08/23 05:20:55;;;;;;;14.77;9.75;;;18.60;99.90;;;;;;5095067;28;20034;-70
2023/08/23 05:23:22;;;;;;;13.65;10.00;;;18.60;99.90;;;;;;5095359;28;20069;-70
2023/08/23 05:25:48;;;;;;;13.68;10.13;;;18.60;99.90;;;;;;5095135;28;20031;-70
2023/08/23 05:28:13;;;;;;;11.13;9.45;;;18.70;99.90;;;;;;5095088;28;20032;-70
2023/08/23 05:30:39;;;;;;;11.77;9.13;;;18.70;99.90;;;;;;5094895;28;20130;-70
2023/08/23 05:33:06;;;;;;;10.10;8.27;;;18.70;99.90;;;;;;5095049;28;20031;-70
2023/08/23 05:35:32;;;;;;;9.52;8.40;;;18.70;99.90;;;;;;5094800;28;20031;-70
2023/08/23 05:37:58;;;;;;;11.35;8.30;;;18.70;99.90;;;;;;5095237;28;20103;-70
2023/08/23 05:40:24;;;;;;;10.57;8.07;;;18.60;99.90;;;;;;5094734;28;20097;-70
2023/08/23 05:42:50;;;;;;;10.70;8.10;;;18.60;99.90;;;;;;5094754;28;20050;-70
2023/08/23 05:45:15;;;;;;;11.13;8.88;;;18.60;99.90;;;;;;5104019;28;20030;-72
2023/08/23 05:47:41;;;;;;;10.38;9.00;;;18.70;99.90;;;;;;5096836;28;20043;-73
2023/08/23 05:50:07;;;;;;;10.32;9.02;;;18.70;99.90;;;;;;5114950;28;20108;-72
2023/08/23 05:52:33;;;;;;;12.57;9.80;;;18.70;99.90;;;;;;5114952;28;20027;-73
2023/08/23 05:54:58;;;;;;;12.60;10.57;;;18.80;99.90;;;;;;5114676;28;20058;-73
2023/08/23 05:57:24;;;;;;;14.35;9.63;;;18.80;99.90;;;;;;5115133;28;20024;-73
2023/08/23 05:59:49;;;;;;;11.65;9.00;;;18.80;99.90;;;;;;5096745;28;20032;-73
2023/08/23 06:02:15;;;;;;;13.05;9.48;;;18.80;99.90;;;;;;5115107;28;20020;-74
2023/08/23 06:04:41;;;;;;;10.70;8.50;;;18.90;99.90;;;;;;5096506;28;20031;-73
2023/08/23 06:07:07;;;;;;;14.93;10.05;;;18.90;99.90;;;;;;5115154;28;20544;-74
2023/08/23 06:09:35;;;;;;;11.98;10.18;;;19.00;99.90;;;;;;5114798;28;20028;-73
2023/08/23 06:12:01;;;;;;;13.73;10.40;;;19.10;99.90;;;;;;5096965;28;20537;-74
2023/08/23 06:14:26;;;;;;;11.88;9.80;;;19.10;99.90;;;;;;5114406;28;20028;-73
2023/08/23 06:16:52;;;;;;;13.70;11.05;;;19.20;99.90;;;;;;5114468;28;20019;-73
2023/08/23 06:19:18;;;;;;;14.48;11.23;;;19.20;99.90;;;;;;5114396;28;20085;-73
2023/08/23 06:21:45;;;;;;;14.77;11.65;;;19.30;99.90;;;;;;5114716;28;20456;-74
2023/08/23 06:24:11;;;;;;;16.02;11.13;;;19.30;99.90;;;;;;5114453;28;20043;-73
2023/08/23 06:26:37;;;;;;;15.38;11.18;;;19.40;99.90;;;;;;5114452;28;20028;-73
2023/08/23 06:29:06;;;;;;;14.00;11.25;;;19.50;99.90;;;;;;5114298;28;20031;-73
2023/08/23 06:31:31;;;;;;;17.15;12.70;;;19.60;99.90;;;;;;5114337;28;20029;-73
2023/08/23 06:33:57;;;;;;;14.27;11.43;;;19.60;99.90;;;;;;5114226;28;20023;-73
2023/08/23 06:36:23;;;;;;;13.13;11.57;;;19.70;99.90;;;;;;5114472;28;20023;-73
2023/08/23 06:38:48;;;;;;;13.55;11.50;;;19.80;99.90;;;;;;5114178;28;20023;-73
2023/08/23 06:41:14;;;;;;;14.93;11.85;;;19.90;99.90;;;;;;5114039;28;20063;-73
2023/08/23 06:43:41;;;;;;;16.00;12.48;;;20.00;99.90;;;;;;5114062;28;20032;-73
2023/08/23 06:46:06;;;;;;;15.63;12.77;;;20.10;99.90;;;;;;5114310;28;20044;-73
2023/08/23 06:48:32;;;;;;;18.38;13.85;;;20.20;99.90;;;;;;5114056;28;20047;-73
2023/08/23 06:51:01;;;;;;;17.42;13.82;;;20.30;99.90;;;;;;5113939;28;20023;-73
2023/08/23 06:53:27;;;;;;;15.35;12.80;;;20.40;99.90;;;;;;5114112;28;20032;-73
2023/08/23 06:55:53;;;;;;;18.10;13.40;;;20.50;99.90;;;;;;5113864;28;20038;-73
2023/08/23 06:58:18;;;;;;;16.15;14.05;;;20.70;99.90;;;;;;5114485;28;20467;-73
2023/08/23 07:00:44;;;;;;;17.90;14.05;;;20.90;99.90;;;;;;5113904;28;20530;-73
2023/08/23 07:03:10;;;;;;;18.15;14.95;;;21.10;99.90;;;;;;5114182;28;20373;-73
2023/08/23 07:05:35;;;;;;;17.15;14.38;;;21.20;99.90;;;;;;5113920;28;20078;-73
2023/08/23 07:08:02;;;;;;;18.88;14.98;;;21.30;99.90;;;;;;5095973;28;20487;-73
2023/08/23 07:10:28;;;;;;;21.63;17.42;;;21.30;99.90;;;;;;5114006;28;20028;-73
2023/08/23 07:12:55;;;;;;;29.35;19.80;;;21.30;99.90;;;;;;5114030;28;20073;-73
2023/08/23 07:15:20;;;;;;;21.60;18.30;;;21.40;99.90;;;;;;5095418;28;20107;-73
2023/08/23 07:17:48;;;;;;;22.38;18.35;;;21.30;99.90;;;;;;5113723;28;20102;-73
2023/08/23 07:20:15;;;;;;;25.77;20.90;;;21.30;99.90;;;;;;5113622;28;20118;-73
2023/08/23 07:22:41;;;;;;;23.23;18.70;;;21.30;99.90;;;;;;5113663;28;20388;-72
2023/08/23 07:25:07;;;;;;;22.35;16.30;;;21.30;99.90;;;;;;5113737;28;20120;-73
2023/08/23 07:27:33;;;;;;;20.00;14.98;;;21.20;99.90;;;;;;5113586;28;20488;-73
2023/08/23 07:29:59;;;;;;;17.52;15.52;;;21.20;99.90;;;;;;5114042;28;20088;-73
2023/08/23 07:32:25;;;;;;;14.50;12.70;;;21.20;99.90;;;;;;5117030;28;20035;-73
2023/08/23 07:34:51;;;;;;;16.92;14.55;;;21.20;99.90;;;;;;5117979;28;20119;-73
2023/08/23 07:37:17;;;;;;;20.15;16.17;;;21.20;99.90;;;;;;5117926;28;20484;-73
2023/08/23 07:39:43;;;;;;;15.25;13.50;;;21.20;99.90;;;;;;5117497;28;20395;-73
2023/08/23 07:42:09;;;;;;;16.70;13.50;;;21.20;99.90;;;;;;5117606;28;20028;-73
2023/08/23 07:44:35;;;;;;;16.50;13.90;;;21.30;99.90;;;;;;5099472;28;20073;-73
2023/08/23 07:47:00;;;;;;;17.80;15.85;;;21.20;99.90;;;;;;5117722;28;20455;-73
2023/08/23 07:49:26;;;;;;;18.98;15.23;;;21.30;99.90;;;;;;5099758;28;20059;-73
2023/08/23 07:51:52;;;;;;;17.58;14.98;;;21.40;99.90;;;;;;5117381;28;20046;-73
2023/08/23 07:54:17;;;;;;;17.63;13.75;;;21.50;99.90;;;;;;5117138;28;20034;-74
2023/08/23 07:56:43;;;;;;;18.50;15.73;;;21.60;99.90;;;;;;5099101;28;20024;-73
2023/08/23 07:59:09;;;;;;;17.27;15.48;;;21.70;99.90;;;;;;5117178;28;20030;-73
2023/08/23 08:01:34;;;;;;;20.75;17.83;;;21.80;99.90;;;;;;5117196;28;20024;-74
2023/08/23 08:04:00;;;;;;;21.40;18.05;;;22.00;99.90;;;;;;5099049;28;20103;-73
2023/08/23 08:06:26;;;;;;;18.17;16.23;;;22.10;99.90;;;;;;5117146;28;20030;-73
2023/08/23 08:08:51;;;;;;;23.17;15.75;;;22.20;99.90;;;;;;5099208;28;20023;-74
2023/08/23 08:11:18;;;;;;;21.75;15.80;;;22.40;99.90;;;;;;5099931;28;20063;-73
2023/08/23 08:13:43;;;;;;;19.90;15.40;;;22.50;99.90;;;;;;5117274;28;20024;-74
2023/08/23 08:16:11;;;;;;;17.15;14.65;;;22.60;99.90;;;;;;5098562;28;20514;-74
2023/08/23 08:18:37;;;;;;;17.85;14.05;;;22.60;99.90;;;;;;5098575;28;20049;-73
2023/08/23 08:21:03;;;;;;;18.27;14.88;;;22.60;99.90;;;;;;5116824;28;20037;-73
2023/08/23 08:23:30;;;;;;;15.57;13.68;;;22.70;99.90;;;;;;5117096;28;20507;-73
2023/08/23 08:25:56;;;;;;;17.83;15.70;;;22.70;99.90;;;;;;5116973;28;20035;-73
2023/08/23 08:28:22;;;;;;;19.85;15.55;;;22.80;99.90;;;;;;5116800;28;20058;-74
2023/08/23 08:30:48;;;;;;;21.08;16.88;;;22.80;99.90;;;;;;5116534;28;20107;-73
2023/08/23 08:33:14;;;;;;;18.75;15.15;;;22.80;99.90;;;;;;5116532;28;20027;-73
2023/08/23 08:35:39;;;;;;;16.83;14.45;;;22.90;99.90;;;;;;5116426;28;20106;-74
2023/08/23 08:38:05;;;;;;;18.35;13.90;;;22.90;99.90;;;;;;5117210;28;20027;-74
2023/08/23 08:40:32;;;;;;;21.65;16.35;;;22.90;99.90;;;;;;5116373;28;20024;-73
2023/08/23 08:42:59;;;;;;;19.50;13.88;;;22.90;99.90;;;;;;5116072;28;20053;-74
2023/08/23 08:45:25;;;;;;;18.05;12.93;;;22.90;99.90;;;;;;5116343;28;20027;-74
2023/08/23 08:47:51;;;;;;;18.45;15.45;;;23.10;99.90;;;;;;5116652;28;20027;-74
2023/08/23 08:50:17;;;;;;;17.05;13.80;;;23.20;99.90;;;;;;5116455;28;20028;-73
2023/08/23 08:52:50;;;;;;;19.42;14.85;;;23.30;99.90;;;;;;5098615;28;20106;-74
2023/08/23 08:55:18;;;;;;;16.25;13.70;;;23.50;99.90;;;;;;5116461;28;20027;-74
2023/08/23 08:57:47;;;;;;;23.13;15.00;;;23.60;99.90;;;;;;5116180;28;20072;-74
2023/08/23 09:00:13;;;;;;;14.75;13.20;;;23.80;99.90;;;;;;5097777;28;20019;-74
2023/08/23 09:02:41;;;;;;;15.18;12.40;;;23.90;99.90;;;;;;5116088;28;20032;-74
2023/08/23 09:05:07;;;;;;;16.13;14.48;;;24.10;99.90;;;;;;5116037;28;20433;-74
2023/08/23 09:07:33;;;;;;;15.23;12.75;;;24.20;99.90;;;;;;5115889;28;20441;-74
2023/08/23 09:09:59;;;;;;;17.30;13.95;;;24.30;99.90;;;;;;5115834;28;20035;-74
2023/08/23 09:12:25;;;;;;;15.52;12.98;;;24.40;99.90;;;;;;5115853;28;20028;-74
2023/08/23 09:14:51;;;;;;;19.80;12.45;;;24.60;99.90;;;;;;5115699;28;20034;-74
2023/08/23 09:17:22;;;;;;;15.45;12.77;;;24.60;99.90;;;;;;5097614;28;20125;-74
2023/08/23 09:19:49;;;;;;;16.65;13.32;;;24.80;99.90;;;;;;5115848;28;20026;-74
2023/08/23 09:22:20;;;;;;;14.88;11.95;;;24.90;99.90;;;;;;5115463;28;20384;-74
2023/08/23 09:24:46;;;;;;;14.70;12.18;;;25.00;99.90;;;;;;5115916;28;20051;-74
2023/08/23 09:27:12;;;;;;;13.55;11.82;;;25.20;99.90;;;;;;5115571;28;20032;-74
2023/08/23 09:29:38;;;;;;;13.07;11.60;;;25.30;99.90;;;;;;5097221;28;20028;-74
2023/08/23 09:32:07;;;;;;;13.20;11.18;;;25.40;99.90;;;;;;5115654;28;20046;-74
2023/08/23 09:34:33;;;;;;;14.20;12.23;;;25.50;99.90;;;;;;5115428;28;20024;-73
2023/08/23 09:37:08;;;;;;;12.85;11.43;;;25.60;99.90;;;;;;5115212;28;20031;-73
2023/08/23 09:39:34;;;;;;;14.57;11.95;;;25.80;99.90;;;;;;5115136;28;20027;-74
2023/08/23 09:42:13;;;;;;;15.10;12.45;;;26.00;99.90;;;;;;5115276;28;20023;-74
2023/08/23 09:44:46;;;;;;;12.82;11.25;;;26.00;99.90;;;;;;5115455;28;20023;-74
2023/08/23 09:47:15;;;;;;;14.80;11.77;;;26.20;99.90;;;;;;5115194;28;20027;-74
2023/08/23 09:49:44;;;;;;;12.63;11.27;;;26.30;99.90;;;;;;5114919;28;20023;-74
2023/08/23 09:52:11;;;;;;;12.45;11.20;;;26.40;99.90;;;;;;5115509;28;20032;-74
2023/08/23 09:55:08;;;;;;;15.05;10.73;;;26.50;99.90;;;;;;5113863;28;20032;-74
2023/08/23 09:57:35;;;;;;;12.13;10.93;;;26.70;99.90;;;;;;5114901;28;20385;-74
2023/08/23 10:00:01;;;;;;;14.90;11.60;;;26.80;99.90;;;;;;5114576;28;20030;-74
2023/08/23 10:02:29;;;;;;;14.00;10.13;;;27.00;99.90;;;;;;5115030;28;20058;-74
2023/08/23 10:04:56;;;;;;;14.70;11.30;;;27.00;99.90;;;;;;5114710;28;20030;-74
2023/08/23 10:07:23;;;;;;;13.00;11.65;;;27.20;99.90;;;;;;5114715;28;20047;-74
2023/08/23 10:09:50;;;;;;;13.00;10.93;;;27.20;99.90;;;;;;5114463;28;20030;-74
2023/08/23 10:12:17;;;;;;;16.35;10.65;;;27.30;99.90;;;;;;5114603;28;20479;-74
2023/08/23 10:14:46;;;;;;;11.73;10.23;;;27.40;99.90;;;;;;5114376;28;20031;-74
2023/08/23 10:17:16;;;;;;;11.23;9.90;;;27.50;99.90;;;;;;5096181;28;20055;-74
2023/08/23 10:19:47;;;;;;;14.15;10.82;;;27.50;99.90;;;;;;5114565;28;20023;-74
2023/08/23 10:22:13;;;;;;;14.18;10.57;;;27.50;99.90;;;;;;5114832;28;20051;-74
2023/08/23 10:24:40;;;;;;;11.77;9.82;;;27.70;99.90;;;;;;5114662;28;20031;-74
2023/08/23 10:27:07;;;;;;;11.40;9.95;;;27.80;99.90;;;;;;5114345;28;20035;-73
2023/08/23 10:29:34;;;;;;;13.02;10.20;;;27.90;99.90;;;;;;5114255;28;20106;-74
2023/08/23 10:32:05;;;;;;;12.40;10.80;;;28.10;99.90;;;;;;5114600;28;20027;-74
2023/08/23 10:34:35;;;;;;;12.80;9.40;;;28.30;99.90;;;;;;5114656;28;20031;-73
2023/08/23 10:37:01;;;;;;;10.70;9.43;;;28.30;99.90;;;;;;5114490;28;20016;-74
2023/08/23 10:39:27;;;;;;;13.18;9.55;;;28.50;99.90;;;;;;5114146;28;20284;-74
2023/08/23 10:41:56;;;;;;;9.95;8.02;;;28.60;99.90;;;;;;5096317;28;20030;-73
2023/08/23 10:44:22;;;;;;;12.60;9.88;;;28.70;99.90;;;;;;5114068;28;20028;-74
2023/08/23 10:46:51;;;;;;;11.38;8.93;;;28.90;99.90;;;;;;5095823;28;20019;-74
2023/08/23 10:49:21;;;;;;;12.60;8.80;;;29.00;99.90;;;;;;5113901;28;20031;-74
2023/08/23 10:51:47;;;;;;;9.85;8.75;;;29.10;99.90;;;;;;5114588;28;20020;-74
2023/08/23 10:54:13;;;;;;;11.18;9.02;;;29.20;99.80;;;;;;5113851;28;20036;-74
2023/08/23 10:56:40;;;;;;;10.85;8.60;;;29.30;99.40;;;;;;5114066;28;20073;-74
2023/08/23 10:59:09;;;;;;;10.40;9.05;;;29.40;99.40;;;;;;5114017;28;20472;-74
2023/08/23 11:01:37;;;;;;;10.57;8.40;;;29.50;99.50;;;;;;5113901;28;20496;-74
2023/08/23 11:04:05;;;;;;;9.13;7.93;;;29.70;98.70;;;;;;5114118;28;20012;-74
2023/08/23 11:06:32;;;;;;;12.75;8.05;;;29.80;98.20;;;;;;5113524;28;20437;-74
2023/08/23 11:08:58;;;;;;;11.82;8.38;;;29.90;97.40;;;;;;5095803;28;20024;-74
2023/08/23 11:11:30;;;;;;;16.15;8.20;;;29.90;97.90;;;;;;5095556;28;20047;-74
2023/08/23 11:13:56;;;;;;;11.68;7.63;;;30.10;98.30;;;;;;5113738;28;20093;-74
2023/08/23 11:16:23;;;;;;;8.93;7.07;;;30.20;97.30;;;;;;5114102;28;20027;-74
2023/08/23 11:18:49;;;;;;;8.27;7.18;;;30.30;97.10;;;;;;5113686;28;20020;-74
2023/08/23 11:21:16;;;;;;;8.00;6.75;;;30.40;97.50;;;;;;5095366;28;20019;-74
2023/08/23 11:23:42;;;;;;;8.30;6.93;;;30.50;96.70;;;;;;5113661;28;20032;-74
2023/08/23 11:26:07;;;;;;;9.20;6.15;;;30.60;96.80;;;;;;5113700;28;20035;-74
2023/08/23 11:28:33;;;;;;;7.45;5.45;;;30.70;94.70;;;;;;5113522;28;20039;-74
2023/08/23 11:30:59;;;;;;;7.82;5.43;;;30.80;93.90;;;;;;5113597;28;20028;-74
2023/08/23 11:33:26;;;;;;;5.93;5.03;;;30.80;93.50;;;;;;5113784;28;20387;-74
2023/08/23 11:35:52;;;;;;;7.32;5.45;;;30.90;92.90;;;;;;5095177;28;20088;-74
2023/08/23 11:38:18;;;;;;;7.60;5.03;;;31.00;92.90;;;;;;5113424;28;20472;-74
2023/08/23 11:40:44;;;;;;;;;;;31.20;92.50;;;;;;5112569;28;20103;-74
2023/08/23 11:43:13;;;;;;;;;;;31.30;91.80;;;;;;5113705;28;19908;-74
2023/08/23 11:45:38;;;;;;;;;;;31.30;90.60;;;;;;5113857;28;19904;-74
2023/08/23 11:48:05;;;;;;;;;;;31.30;91.60;;;;;;5095545;28;19907;-74
2023/08/23 11:50:30;;;;;;;;;;;31.30;91.60;;;;;;5113752;28;19908;-74
2023/08/23 11:52:56;;;;;;;;;;;31.40;90.50;;;;;;5113519;28;19976;-75
2023/08/23 11:55:22;;;;;;;;;;;31.40;90.50;;;;;;5113777;28;19907;-74
2023/08/23 11:57:56;;;;;;;;;;;31.30;89.20;;;;;;5113216;28;19907;-73
2023/08/23 12:00:22;;;;;;;;;;;31.20;90.50;;;;;;5112746;28;19904;-74
2023/08/23 12:02:48;;;;;;;;;;;30.80;89.70;;;;;;5078709;28;19908;-74
2023/08/23 12:05:15;;;;;;;;;;;30.80;90.40;;;;;;5095491;28;19907;-74
2023/08/23 12:07:40;;;;;;;;;;;30.80;90.90;;;;;;5113769;28;19919;-74
2023/08/23 12:10:09;;;;;;;;;;;30.80;90.40;;;;;;5113738;28;19903;-74
2023/08/23 12:12:35;;;;;;;;;;;30.80;90.80;;;;;;5114195;28;19904;-74
2023/08/23 12:15:01;;;;;;;;;;;30.80;91.00;;;;;;5113848;28;19986;-74
2023/08/23 12:17:27;;;;;;;;;;;30.80;90.40;;;;;;5113576;28;19931;-74
2023/08/23 12:19:52;;;;;;;;;;;30.90;91.00;;;;;;5098550;28;20348;-74
2023/08/23 12:22:18;;;;;;;;;;;31.10;91.60;;;;;;5117438;28;19914;-74
2023/08/23 12:24:43;;;;;;;;;;;31.20;91.30;;;;;;5099513;28;19907;-75
2023/08/23 12:27:09;;;;;;;;;;;31.40;89.20;;;;;;5117085;28;19954;-74
2023/08/23 12:29:35;;;;;;;;;;;31.40;89.00;;;;;;5117243;28;19947;-74
2023/08/23 12:32:00;;;;;;;;;;;31.40;90.60;;;;;;5117137;28;19908;-74
2023/08/23 12:34:26;;;;;;;;;;;31.30;89.90;;;;;;5117479;28;20252;-74
2023/08/23 12:36:51;;;;;;;;;;;31.20;90.00;;;;;;5117214;28;20025;-74
2023/08/23 12:39:17;;;;;;;;;;;31.20;91.00;;;;;;5116898;28;19915;-74
2023/08/23 12:41:43;;;;;;;;;;;31.30;90.20;;;;;;5098684;28;19998;-74